createdAt,value
2022-12-17T00:00:46.597Z,101701.72
2022-12-17T00:03:32.277Z,101705.22
2022-12-17T00:06:18.075Z,101703.47
2022-12-17T00:09:03.234Z,101700.91
2022-12-17T00:11:48.568Z,101689.31
2022-12-17T00:14:33.837Z,101692.94
2022-12-17T00:17:20.592Z,101696.59
2022-12-17T00:20:05.848Z,101687.84
2022-12-17T00:22:51.174Z,101696.06
2022-12-17T00:25:36.604Z,101694.34
2022-12-17T00:28:21.694Z,101692.53
2022-12-17T00:31:10.441Z,101691.59
2022-12-17T00:33:57.640Z,101695.19
2022-12-17T00:36:43.275Z,101690.88
2022-12-17T00:39:28.398Z,101701.69
2022-12-17T00:42:15.443Z,101689.25
2022-12-17T00:45:01.719Z,101693.06
2022-12-17T00:47:47.576Z,101693.34
2022-12-17T00:50:34.815Z,101681.94
2022-12-17T00:53:20.073Z,101689.13
2022-12-17T00:56:05.842Z,101689.00
2022-12-17T00:58:51.072Z,101696.09
2022-12-17T01:01:37.656Z,101669.25
2022-12-17T01:04:23.390Z,101699.53
2022-12-17T01:07:10.281Z,101692.31
2022-12-17T01:09:55.467Z,101687.78
2022-12-17T01:12:41.154Z,101682.53
2022-12-17T01:15:26.788Z,101677.19
2022-12-17T01:18:12.263Z,101674.50
2022-12-17T01:20:57.407Z,101674.50
2022-12-17T01:23:52.800Z,101681.59
2022-12-17T01:26:38.391Z,101678.13
2022-12-17T01:29:23.665Z,101687.13
2022-12-17T01:32:08.855Z,101625.66
2022-12-17T01:34:55.689Z,101688.84
2022-12-17T01:37:41.179Z,101688.06
2022-12-17T01:40:29.419Z,101695.22
2022-12-17T01:43:18.012Z,101704.25
2022-12-17T01:46:07.652Z,101701.47
2022-12-17T01:49:05.543Z,101698.72
2022-12-17T01:51:52.651Z,101709.41
2022-12-17T01:54:38.551Z,101704.91
2022-12-17T01:57:26.332Z,101706.63
2022-12-17T02:00:17.503Z,101690.56
2022-12-17T02:03:02.997Z,101703.03
2022-12-17T02:05:56.923Z,101713.72
2022-12-17T02:08:50.262Z,101704.91
2022-12-17T02:11:42.937Z,101718.97
2022-12-17T02:14:40.639Z,101712.88
2022-12-17T02:17:33.732Z,101707.41
2022-12-17T02:20:35.027Z,101703.97
2022-12-17T02:23:27.705Z,101709.22
2022-12-17T02:26:26.871Z,101686.03
2022-12-17T02:29:16.340Z,101724.50
2022-12-17T02:32:16.089Z,101723.66
2022-12-17T02:35:02.856Z,101730.13
2022-12-17T02:37:48.972Z,101731.06
2022-12-17T02:40:37.176Z,101721.25
2022-12-17T02:43:23.394Z,101722.09
2022-12-17T02:46:11.679Z,101738.94
2022-12-17T02:48:57.428Z,101742.66
2022-12-17T02:51:45.572Z,101734.63
2022-12-17T02:54:30.856Z,101737.41
2022-12-17T02:57:16.551Z,101732.22
2022-12-17T03:00:03.195Z,101728.50
2022-12-17T03:02:51.371Z,101726.41
2022-12-17T03:05:44.865Z,101717.44
2022-12-17T03:08:31.447Z,101716.47
2022-12-17T03:11:17.230Z,101707.50
2022-12-17T03:14:02.937Z,101717.34
2022-12-17T03:16:48.851Z,101716.41
2022-12-17T03:19:36.184Z,101713.81
2022-12-17T03:22:21.538Z,101714.66
2022-12-17T03:25:06.772Z,101713.72
2022-12-17T03:27:52.093Z,101704.66
2022-12-17T03:30:38.993Z,101707.41
2022-12-17T03:33:32.331Z,101682.47
2022-12-17T03:36:19.272Z,101711.88
2022-12-17T03:39:04.569Z,101702.31
2022-12-17T03:41:49.755Z,101709.41
2022-12-17T03:44:35.002Z,101710.25
2022-12-17T03:47:20.188Z,101652.34
2022-12-17T03:50:05.526Z,101713.91
2022-12-17T03:52:52.639Z,101705.78
2022-12-17T03:55:37.926Z,101703.19
2022-12-17T03:58:23.177Z,101703.19
2022-12-17T04:01:08.358Z,101709.31
2022-12-17T04:03:53.707Z,101696.88
2022-12-17T04:06:38.958Z,101701.47
2022-12-17T04:09:25.933Z,101704.91
2022-12-17T04:12:11.159Z,101683.34
2022-12-17T04:14:56.883Z,101699.53
2022-12-17T04:17:42.180Z,101702.22
2022-12-17T04:20:28.585Z,101691.50
2022-12-17T04:23:13.717Z,101690.75
2022-12-17T04:26:00.551Z,101688.00
2022-12-17T04:28:45.783Z,101678.13
2022-12-17T04:31:31.553Z,101669.50
2022-12-17T04:34:16.883Z,101683.25
2022-12-17T04:37:02.262Z,101686.50
2022-12-17T04:39:47.554Z,101693.31
2022-12-17T04:42:34.845Z,101686.81
2022-12-17T04:45:20.299Z,101688.56
2022-12-17T04:48:10.996Z,101694.84
2022-12-17T04:50:56.701Z,101694.84
2022-12-17T04:53:41.988Z,101687.69
2022-12-17T04:56:27.279Z,101692.94
2022-12-17T04:59:13.419Z,101685.78
2022-12-17T05:01:58.939Z,101684.81
2022-12-17T05:04:44.376Z,101683.97
2022-12-17T05:07:29.526Z,101680.31
2022-12-17T05:10:20.176Z,101686.72
2022-12-17T05:13:05.712Z,101685.78
2022-12-17T05:15:53.405Z,101684.63
2022-12-17T05:18:38.910Z,101694.50
2022-12-17T05:21:24.470Z,101686.28
2022-12-17T05:24:10.399Z,101696.13
2022-12-17T05:26:55.686Z,101681.69
2022-12-17T05:29:42.976Z,101688.97
2022-12-17T05:32:29.515Z,101693.53
2022-12-17T05:35:14.753Z,101697.25
2022-12-17T05:38:00.023Z,101691.22
2022-12-17T05:40:45.307Z,101690.44
2022-12-17T05:43:31.709Z,101696.75
2022-12-17T05:46:16.934Z,101705.84
2022-12-17T05:49:03.820Z,101710.22
2022-12-17T05:51:49.530Z,101709.38
2022-12-17T05:54:34.866Z,101703.16
2022-12-17T05:57:20.091Z,101699.50
2022-12-17T06:00:05.401Z,101696.94
2022-12-17T06:02:57.383Z,101693.50
2022-12-17T06:05:44.365Z,101702.28
2022-12-17T06:08:29.523Z,101699.69
2022-12-17T06:11:17.714Z,101704.97
2022-12-17T06:14:03.577Z,101690.88
2022-12-17T06:17:03.380Z,101697.97
2022-12-17T06:19:48.883Z,101702.28
2022-12-17T06:22:35.494Z,101696.75
2022-12-17T06:25:20.989Z,101707.47
2022-12-17T06:28:06.244Z,101705.56
2022-12-17T06:30:51.979Z,101702.72
2022-12-17T06:33:37.852Z,101712.38
2022-12-17T06:36:24.324Z,101717.44
2022-12-17T06:39:11.367Z,101713.84
2022-12-17T06:42:04.659Z,101713.84
2022-12-17T06:44:50.403Z,101710.09
2022-12-17T06:47:36.643Z,101707.31
2022-12-17T06:50:22.986Z,101714.50
2022-12-17T06:53:17.378Z,101710.09
2022-12-17T06:56:06.407Z,101715.75
2022-12-17T06:58:51.834Z,101724.78
2022-12-17T07:01:37.765Z,101722.13
2022-12-17T07:04:23.188Z,101721.34
2022-12-17T07:07:09.030Z,101727.75
2022-12-17T07:09:54.607Z,101719.88
2022-12-17T07:12:44.182Z,101729.66
2022-12-17T07:15:30.079Z,101728.91
2022-12-17T07:18:16.284Z,101729.84
2022-12-17T07:21:01.672Z,101728.03
2022-12-17T07:23:46.965Z,101729.84
2022-12-17T07:26:33.131Z,101737.09
2022-12-17T07:29:20.632Z,101739.78
2022-12-17T07:32:08.316Z,101748.00
2022-12-17T07:34:53.793Z,101756.97
2022-12-17T07:37:40.159Z,101755.16
2022-12-17T07:40:32.317Z,101756.03
2022-12-17T07:43:17.877Z,101746.19
2022-12-17T07:46:05.001Z,101744.19
2022-12-17T07:48:50.679Z,101740.56
2022-12-17T07:51:35.963Z,101742.28
2022-12-17T07:54:21.111Z,101747.47
2022-12-17T07:57:06.419Z,101744.69
2022-12-17T07:59:51.581Z,101737.53
2022-12-17T08:02:38.831Z,101732.00
2022-12-17T08:05:24.999Z,101742.72
2022-12-17T08:08:10.161Z,101741.91
2022-12-17T08:10:55.507Z,101733.88
2022-12-17T08:13:40.724Z,101736.66
2022-12-17T08:16:26.664Z,101739.22
2022-12-17T08:19:14.534Z,101735.88
2022-12-17T08:21:59.799Z,101733.09
2022-12-17T08:24:45.169Z,101728.72
2022-12-17T08:27:30.360Z,101737.69
2022-12-17T08:30:15.733Z,101738.56
2022-12-17T08:33:00.980Z,101736.75
2022-12-17T08:35:47.751Z,101743.94
2022-12-17T08:38:48.023Z,101742.19
2022-12-17T08:41:33.322Z,101743.06
2022-12-17T08:44:18.567Z,101744.00
2022-12-17T08:47:04.004Z,101751.19
2022-12-17T08:49:49.300Z,101731.22
2022-12-17T08:52:35.923Z,101750.50
2022-12-17T08:55:21.121Z,101759.63
2022-12-17T08:58:12.002Z,101757.75
2022-12-17T09:00:57.795Z,101750.50
2022-12-17T09:03:43.556Z,101727.13
2022-12-17T09:06:30.089Z,101743.16
2022-12-17T09:09:18.039Z,101743.94
2022-12-17T09:12:03.335Z,101738.47
2022-12-17T09:14:56.866Z,101740.03
2022-12-17T09:17:42.817Z,101737.19
2022-12-17T09:20:29.586Z,101727.28
2022-12-17T09:23:15.174Z,101720.41
2022-12-17T09:26:01.912Z,101716.59
2022-12-17T09:28:47.024Z,101712.97
2022-12-17T09:31:37.003Z,101718.31
2022-12-17T09:34:23.129Z,101721.19
2022-12-17T09:37:08.695Z,101708.13
2022-12-17T09:39:53.920Z,101722.56
2022-12-17T09:42:52.582Z,101718.25
2022-12-17T09:45:46.360Z,101716.78
2022-12-17T09:48:38.826Z,101721.38
2022-12-17T09:51:38.537Z,101717.19
2022-12-17T09:54:30.372Z,101712.75
2022-12-17T09:57:16.811Z,101714.66
2022-12-17T10:00:03.977Z,101715.59
2022-12-17T10:02:57.884Z,101713.03
2022-12-17T10:05:47.044Z,101708.63
2022-12-17T10:08:35.397Z,101702.41
2022-12-17T10:11:34.846Z,101699.72
2022-12-17T10:14:22.199Z,101707.84
2022-12-17T10:17:12.092Z,101700.53
2022-12-17T10:19:59.671Z,101710.94
2022-12-17T10:22:45.519Z,101703.41
2022-12-17T10:25:34.506Z,101705.72
2022-12-17T10:28:21.639Z,101700.19
2022-12-17T10:31:06.893Z,101699.06
2022-12-17T10:33:58.431Z,101693.16
2022-12-17T10:36:45.165Z,101683.22
2022-12-17T10:39:35.567Z,101687.63
2022-12-17T10:42:21.186Z,101681.41
2022-12-17T10:45:20.898Z,101692.81
2022-12-17T10:48:06.274Z,101682.28
2022-12-17T10:50:59.942Z,101684.94
2022-12-17T10:53:45.351Z,101691.53
2022-12-17T10:56:40.625Z,101693.53
2022-12-17T10:59:31.305Z,101691.22
2022-12-17T11:02:17.807Z,101688.72
2022-12-17T11:05:10.608Z,101697.69
2022-12-17T11:08:00.470Z,101694.34
2022-12-17T11:10:49.750Z,101695.38
2022-12-17T11:13:43.712Z,101692.81
2022-12-17T11:16:38.600Z,101681.31
2022-12-17T11:19:46.651Z,101681.41
2022-12-17T11:22:42.480Z,101681.41
2022-12-17T11:25:45.449Z,101671.56
2022-12-17T11:28:43.079Z,101669.75
2022-12-17T11:31:53.721Z,101672.31
2022-12-17T11:34:50.994Z,101669.56
2022-12-17T11:37:39.831Z,101655.91
2022-12-17T11:40:40.232Z,101649.31
2022-12-17T11:43:36.660Z,101644.66
2022-12-17T11:46:33.018Z,101644.25
2022-12-17T11:49:27.475Z,101639.22
2022-12-17T11:52:20.422Z,101633.59
2022-12-17T11:55:14.284Z,101642.31
2022-12-17T11:58:08.512Z,101641.34
2022-12-17T12:01:02.564Z,101628.44
2022-12-17T12:04:01.040Z,101656.00
2022-12-17T12:06:56.878Z,101659.63
2022-12-17T12:09:51.623Z,101670.63
2022-12-17T12:12:52.423Z,101654.72
2022-12-17T12:15:46.367Z,101640.84
2022-12-17T12:18:39.224Z,101639.88
2022-12-17T12:21:44.029Z,101653.09
2022-12-17T12:24:43.918Z,101641.75
2022-12-17T12:27:42.594Z,101644.53
2022-12-17T12:30:34.265Z,101642.03
2022-12-17T12:33:29.735Z,101656.41
2022-12-17T12:36:19.635Z,101648.72
2022-12-17T12:39:09.063Z,101646.63
2022-12-17T12:42:04.147Z,101643.03
2022-12-17T12:45:00.103Z,101621.66
2022-12-17T12:47:53.891Z,101564.63
2022-12-17T12:50:47.712Z,101606.66
2022-12-17T12:53:33.396Z,101587.16
2022-12-17T12:56:19.227Z,101587.16
2022-12-17T12:59:04.264Z,101605.03
2022-12-17T13:01:55.321Z,101588.59
2022-12-17T13:04:51.674Z,101614.03
2022-12-17T13:07:27.369Z,101628.69
2022-12-17T13:09:57.027Z,101641.69
2022-12-17T13:12:31.124Z,101635.03
2022-12-17T13:15:28.935Z,101619.72
2022-12-17T13:18:16.282Z,101624.88
2022-12-17T13:20:44.381Z,101614.81
2022-12-17T13:23:27.894Z,101618.69
2022-12-17T13:26:15.788Z,101613.22
2022-12-17T13:28:45.691Z,101619.72
2022-12-17T13:31:21.077Z,101627.97
2022-12-17T13:33:59.385Z,101627.38
2022-12-17T13:36:35.379Z,101642.88
2022-12-17T13:39:22.724Z,101640.47
2022-12-17T13:41:56.899Z,101647.84
2022-12-17T13:44:29.564Z,101651.56
2022-12-17T13:46:57.641Z,101643.03
2022-12-17T13:49:27.740Z,101650.88
2022-12-17T13:52:17.915Z,101636.81
2022-12-17T13:54:47.784Z,101645.88
2022-12-17T13:57:20.717Z,101635.19
2022-12-17T13:59:53.601Z,101627.13
2022-12-17T14:02:29.954Z,101621.03
2022-12-17T14:05:04.047Z,101575.81
2022-12-17T14:07:39.338Z,101623.81
2022-12-17T14:10:16.606Z,101625.63
2022-12-17T14:12:44.944Z,101617.66
2022-12-17T14:15:24.476Z,101622.00
2022-12-17T14:17:54.027Z,101624.69
2022-12-17T14:20:25.003Z,101615.66
2022-12-17T14:22:56.002Z,101607.56
2022-12-17T14:25:28.334Z,101603.81
2022-12-17T14:27:58.711Z,101609.94
2022-12-17T14:30:35.168Z,101607.91
2022-12-17T14:33:03.751Z,101609.66
2022-12-17T14:35:35.109Z,101609.19
2022-12-17T14:38:04.073Z,101609.19
2022-12-17T14:40:33.525Z,101610.31
2022-12-17T14:43:02.592Z,101619.81
2022-12-17T14:45:30.712Z,101620.38
2022-12-17T14:48:00.387Z,101621.38
2022-12-17T14:50:33.579Z,101623.47
2022-12-17T14:53:03.372Z,101635.50
2022-12-17T14:55:38.369Z,101623.06
2022-12-17T14:58:17.613Z,101621.63
2022-12-17T15:00:48.305Z,101620.19
2022-12-17T15:03:21.249Z,101613.56
2022-12-17T15:05:54.078Z,101620.47
2022-12-17T15:08:22.875Z,101618.16
2022-12-17T15:10:52.192Z,101618.16
2022-12-17T15:13:21.041Z,101607.63
2022-12-17T15:15:48.915Z,101604.25
2022-12-17T15:18:16.963Z,101606.19
2022-12-17T15:20:45.296Z,101620.53
2022-12-17T15:23:17.175Z,101629.53
2022-12-17T15:25:47.241Z,101629.53
2022-12-17T15:28:17.976Z,101641.09
2022-12-17T15:30:46.441Z,101643.97
2022-12-17T15:33:14.661Z,101613.69
2022-12-17T15:35:43.745Z,101639.38
2022-12-17T15:38:13.330Z,101632.31
2022-12-17T15:40:41.804Z,101628.66
2022-12-17T15:43:13.584Z,101618.13
2022-12-17T15:45:44.538Z,101632.72
2022-12-17T15:48:14.994Z,101641.22
2022-12-17T15:50:43.298Z,101651.47
2022-12-17T15:53:11.484Z,101649.56
2022-12-17T15:55:40.197Z,101650.13
2022-12-17T15:58:10.604Z,101647.38
2022-12-17T16:00:38.829Z,101632.03
2022-12-17T16:03:08.392Z,101643.81
2022-12-17T16:05:36.475Z,101648.25
2022-12-17T16:08:04.371Z,101656.28
2022-12-17T16:10:32.475Z,101650.25
2022-12-17T16:13:00.443Z,101650.53
2022-12-17T16:15:28.592Z,101650.72
2022-12-17T16:17:56.784Z,101644.78
2022-12-17T16:20:27.167Z,101637.78
2022-12-17T16:22:55.213Z,101646.19
2022-12-17T16:25:23.246Z,101642.03
2022-12-17T16:27:51.179Z,101644.84
2022-12-17T16:30:19.279Z,101663.75
2022-12-17T16:32:47.278Z,101668.41
2022-12-17T16:35:15.265Z,101658.09
2022-12-17T16:37:44.792Z,101662.47
2022-12-17T16:40:13.429Z,101647.31
2022-12-17T16:42:41.584Z,101662.06
2022-12-17T16:45:10.639Z,101665.44
2022-12-17T16:47:38.771Z,101666.47
2022-12-17T16:50:07.379Z,101662.94
2022-12-17T16:52:35.367Z,101662.16
2022-12-17T16:55:04.948Z,101664.75
2022-12-17T16:57:32.860Z,101667.34
2022-12-17T17:00:00.872Z,101667.06
2022-12-17T17:02:29.142Z,101637.97
2022-12-17T17:04:57.277Z,101656.66
2022-12-17T17:07:25.274Z,101660.13
2022-12-17T17:09:53.261Z,101664.44
2022-12-17T17:12:23.350Z,101672.28
2022-12-17T17:14:51.322Z,101673.06
2022-12-17T17:17:19.291Z,101678.25
2022-12-17T17:20:08.103Z,101678.03
2022-12-17T17:22:36.155Z,101684.38
2022-12-17T17:25:05.066Z,101684.25
2022-12-17T17:27:34.430Z,101663.94
2022-12-17T17:30:03.825Z,101696.72
2022-12-17T17:32:32.144Z,101696.88
2022-12-17T17:35:00.292Z,101697.94
2022-12-17T17:37:28.446Z,101708.72
2022-12-17T17:39:56.371Z,101705.38
2022-12-17T17:42:24.348Z,101701.53
2022-12-17T17:44:53.827Z,101711.69
2022-12-17T17:47:21.864Z,101709.19
2022-12-17T17:49:49.868Z,101668.28
2022-12-17T17:52:18.309Z,101694.84
2022-12-17T17:54:46.355Z,101695.72
2022-12-17T17:57:14.316Z,101686.06
2022-12-17T17:59:42.275Z,101694.84
2022-12-17T18:02:12.802Z,101685.94
2022-12-17T18:04:41.069Z,101685.88
2022-12-17T18:07:26.995Z,101692.75
2022-12-17T18:09:55.881Z,101600.47
2022-12-17T18:12:41.999Z,101690.25
2022-12-17T18:15:15.755Z,101707.03
2022-12-17T18:17:46.764Z,101695.34
2022-12-17T18:20:15.352Z,101692.00
2022-12-17T18:22:45.791Z,101696.38
2022-12-17T18:25:14.023Z,101710.56
2022-12-17T18:27:42.629Z,101699.75
2022-12-17T18:30:11.639Z,101689.72
2022-12-17T18:32:39.635Z,101694.81
2022-12-17T18:35:10.080Z,101691.84
2022-12-17T18:37:38.458Z,101695.28
2022-12-17T18:40:07.434Z,101699.34
2022-12-17T18:42:55.394Z,101698.19
2022-12-17T18:45:23.453Z,101699.16
2022-12-17T18:47:51.647Z,101703.53
2022-12-17T18:50:21.079Z,101706.22
2022-12-17T18:52:49.150Z,101706.41
2022-12-17T18:55:17.471Z,101704.78
2022-12-17T18:57:45.318Z,101705.81
2022-12-17T19:00:14.780Z,101700.63
2022-12-17T19:02:42.852Z,101704.28
2022-12-17T19:05:11.124Z,101714.25
2022-12-17T19:07:40.380Z,101708.78
2022-12-17T19:10:09.201Z,101718.63
2022-12-17T19:12:37.228Z,101716.06
2022-12-17T19:15:05.867Z,101721.22
2022-12-17T19:17:34.571Z,101672.06
2022-12-17T19:20:02.488Z,101720.25
2022-12-17T19:22:30.535Z,101723.03
2022-12-17T19:24:59.785Z,101723.03
2022-12-17T19:27:28.855Z,101722.44
2022-12-17T19:29:57.232Z,101719.78
2022-12-17T19:32:25.908Z,101715.19
2022-12-17T19:34:53.935Z,101722.34
2022-12-17T19:37:21.918Z,101723.41
2022-12-17T19:39:49.955Z,101719.78
2022-12-17T19:42:33.465Z,101720.53
2022-12-17T19:45:05.225Z,101718.81
2022-12-17T19:47:33.192Z,101709.81
2022-12-17T19:50:02.223Z,101711.34
2022-12-17T19:52:30.299Z,101720.00
2022-12-17T19:54:58.303Z,101722.75
2022-12-17T19:57:27.673Z,101732.25
2022-12-17T19:59:55.650Z,101735.78
2022-12-17T20:02:27.016Z,101724.97
2022-12-17T20:04:57.800Z,101733.78
2022-12-17T20:07:27.798Z,101678.00
2022-12-17T20:09:55.784Z,101691.81
2022-12-17T20:12:23.844Z,101734.81
2022-12-17T20:14:53.175Z,101736.75
2022-12-17T20:17:21.325Z,101736.25
2022-12-17T20:19:53.323Z,101736.25
2022-12-17T20:22:22.856Z,101735.47
2022-12-17T20:24:50.824Z,101722.28
2022-12-17T20:27:18.907Z,101724.09
2022-12-17T20:29:46.823Z,101725.91
2022-12-17T20:32:21.261Z,101711.91
2022-12-17T20:34:49.407Z,101718.81
2022-12-17T20:37:17.391Z,101736.78
2022-12-17T20:39:45.400Z,101663.81
2022-12-17T20:42:13.491Z,101738.25
2022-12-17T20:44:41.496Z,101677.66
2022-12-17T20:47:09.415Z,101735.88
2022-12-17T20:49:38.775Z,101730.06
2022-12-17T20:52:06.862Z,101733.53
2022-12-17T20:54:35.502Z,101729.69
2022-12-17T20:57:03.491Z,101723.38
2022-12-17T20:59:31.461Z,101718.78
2022-12-17T21:01:59.445Z,101708.19
2022-12-17T21:04:27.654Z,101722.34
2022-12-17T21:06:57.055Z,101725.03
2022-12-17T21:09:25.557Z,101721.56
2022-12-17T21:11:53.559Z,101706.03
2022-12-17T21:14:21.423Z,101724.25
2022-12-17T21:16:49.715Z,101729.63
2022-12-17T21:19:20.194Z,101724.25
2022-12-17T21:21:48.628Z,101724.31
2022-12-17T21:24:18.143Z,101729.63
2022-12-17T21:26:49.972Z,101735.91
2022-12-17T21:29:18.457Z,101718.16
2022-12-17T21:31:48.561Z,101745.00
2022-12-17T21:34:19.128Z,101752.09
2022-12-17T21:36:47.193Z,101738.78
2022-12-17T21:39:18.052Z,101743.97
2022-12-17T21:42:09.090Z,101751.06
2022-12-17T21:44:38.062Z,101756.59
2022-12-17T21:47:06.732Z,101755.84
2022-12-17T21:49:34.887Z,101762.91
2022-12-17T21:52:03.157Z,101759.44
2022-12-17T21:54:32.529Z,101761.19
2022-12-17T21:57:00.484Z,101768.44
2022-12-17T21:59:28.470Z,101759.63
2022-12-17T22:01:57.506Z,101757.81
2022-12-17T22:04:26.094Z,101762.41
2022-12-17T22:06:58.153Z,101771.28
2022-12-17T22:10:01.156Z,101764.88
2022-12-17T22:12:43.566Z,101770.34
2022-12-17T22:15:12.112Z,101756.94
2022-12-17T22:17:42.392Z,101763.06
2022-12-17T22:20:11.416Z,101757.72
2022-12-17T22:22:39.464Z,101759.44
2022-12-17T22:25:11.281Z,101764.47
2022-12-17T22:27:40.790Z,101738.47
2022-12-17T22:30:31.082Z,101767.78
2022-12-17T22:33:05.613Z,101767.91
2022-12-17T22:38:03.304Z,101766.94
2022-12-17T22:42:56.352Z,101767.91
2022-12-17T22:44:35.841Z,101761.56
2022-12-17T22:44:36.168Z,101764.25
2022-12-17T22:47:10.105Z,101762.44
2022-12-17T22:49:40.790Z,101766.78
2022-12-17T22:52:11.647Z,101763.06
2022-12-17T22:54:39.785Z,101775.41
2022-12-17T22:57:34.470Z,101779.72
2022-12-17T22:59:57.566Z,101765.47
2022-12-17T23:02:25.533Z,101762.81
2022-12-17T23:04:53.459Z,101762.81
2022-12-17T23:07:23.642Z,101769.56
2022-12-17T23:09:54.917Z,101759.81
2022-12-17T23:12:42.319Z,101734.44
2022-12-17T23:15:10.751Z,101762.41
2022-12-17T23:17:38.708Z,101761.28
2022-12-17T23:20:07.755Z,101760.22
2022-12-17T23:22:35.720Z,101748.53
2022-12-17T23:25:04.332Z,101725.28
2022-12-17T23:27:33.988Z,101742.13
2022-12-17T23:30:02.019Z,101757.44
2022-12-17T23:32:30.274Z,101752.00
2022-12-17T23:34:58.460Z,101752.06
2022-12-17T23:37:26.483Z,101747.00
2022-12-17T23:39:54.412Z,101748.06
2022-12-17T23:42:22.539Z,101744.50
2022-12-17T23:44:51.888Z,101735.78
2022-12-17T23:47:19.787Z,101746.72
2022-12-17T23:49:47.945Z,101743.25
2022-12-17T23:52:16.007Z,101737.22
2022-12-17T23:54:44.016Z,101734.97
2022-12-17T23:57:12.039Z,101740.84
2022-12-17T23:59:40.170Z,101743.63
